createdAt,value
2022-12-03T00:00:56.110Z,14.23
2022-12-03T00:03:58.736Z,15.10
2022-12-03T00:07:01.135Z,15.38
2022-12-03T00:10:05.060Z,15.98
2022-12-03T00:13:08.515Z,16.03
2022-12-03T00:16:10.903Z,14.95
2022-12-03T00:19:13.475Z,17.27
2022-12-03T00:22:15.824Z,15.75
2022-12-03T00:25:18.394Z,18.08
2022-12-03T00:28:20.639Z,14.97
2022-12-03T00:31:23.629Z,15.10
2022-12-03T00:34:26.007Z,15.30
2022-12-03T00:37:28.491Z,16.00
2022-12-03T00:40:30.845Z,15.95
2022-12-03T00:43:33.116Z,16.40
2022-12-03T00:46:35.393Z,16.92
2022-12-03T00:49:37.845Z,16.30
2022-12-03T00:52:40.089Z,16.08
2022-12-03T00:55:42.357Z,15.82
2022-12-03T00:58:44.622Z,16.07
2022-12-03T01:01:46.933Z,17.48
2022-12-03T01:04:49.189Z,17.80
2022-12-03T01:07:51.642Z,16.58
2022-12-03T01:10:53.929Z,17.75
2022-12-03T01:13:56.186Z,18.37
2022-12-03T01:16:58.610Z,19.90
2022-12-03T01:20:01.709Z,16.77
2022-12-03T01:23:04.479Z,16.77
2022-12-03T01:26:06.810Z,18.08
2022-12-03T01:29:09.129Z,16.70
2022-12-03T01:32:17.896Z,17.23
2022-12-03T01:35:20.255Z,18.50
2022-12-03T01:38:22.465Z,16.95
2022-12-03T01:41:25.239Z,18.67
2022-12-03T01:44:34.563Z,17.00
2022-12-03T01:47:38.162Z,17.85
2022-12-03T01:50:40.449Z,18.00
2022-12-03T01:53:44.349Z,17.48
2022-12-03T01:56:47.446Z,18.50
2022-12-03T01:59:50.381Z,17.93
2022-12-03T02:02:58.639Z,18.00
2022-12-03T02:06:01.002Z,16.85
2022-12-03T02:09:03.470Z,16.77
2022-12-03T02:12:06.232Z,16.50
2022-12-03T02:15:10.285Z,16.97
2022-12-03T02:18:12.841Z,17.55
2022-12-03T02:21:35.514Z,19.63
2022-12-03T02:24:48.667Z,18.25
2022-12-03T02:27:53.344Z,18.58
2022-12-03T02:30:56.128Z,16.27
2022-12-03T02:33:58.449Z,16.77
2022-12-03T02:37:01.347Z,17.30
2022-12-03T02:40:10.617Z,16.33
2022-12-03T02:43:16.580Z,17.33
2022-12-03T02:46:18.891Z,18.87
2022-12-03T02:49:21.432Z,18.73
2022-12-03T02:52:24.190Z,17.48
2022-12-03T02:55:30.781Z,17.10
2022-12-03T02:58:38.118Z,17.42
2022-12-03T03:01:40.489Z,17.20
2022-12-03T03:04:43.842Z,16.83
2022-12-03T03:07:46.544Z,18.45
2022-12-03T03:10:49.786Z,17.50
2022-12-03T03:13:52.032Z,16.80
2022-12-03T03:16:57.385Z,17.07
2022-12-03T03:19:59.865Z,17.33
2022-12-03T03:23:13.288Z,18.38
2022-12-03T03:26:16.694Z,17.38
2022-12-03T03:29:19.399Z,16.85
2022-12-03T03:32:21.678Z,18.13
2022-12-03T03:35:25.154Z,16.77
2022-12-03T03:38:29.849Z,18.05
2022-12-03T03:41:33.229Z,16.65
2022-12-03T03:44:35.860Z,16.60
2022-12-03T03:47:38.575Z,16.73
2022-12-03T03:50:42.161Z,17.33
2022-12-03T03:53:49.805Z,17.38
2022-12-03T03:56:52.368Z,17.55
2022-12-03T03:59:54.611Z,17.60
2022-12-03T04:02:56.983Z,17.17
2022-12-03T04:05:59.290Z,17.77
2022-12-03T04:09:01.613Z,17.67
2022-12-03T04:12:22.529Z,17.33
2022-12-03T04:15:25.548Z,17.23
2022-12-03T04:18:43.058Z,18.30
2022-12-03T04:22:04.159Z,17.67
2022-12-03T04:25:34.275Z,18.90
2022-12-03T04:28:51.364Z,18.05
2022-12-03T04:32:12.345Z,17.88
2022-12-03T04:35:33.711Z,17.67
2022-12-03T04:38:36.061Z,18.58
2022-12-03T04:41:38.300Z,17.45
2022-12-03T04:44:40.688Z,17.10
2022-12-03T04:47:44.768Z,18.25
2022-12-03T04:50:47.106Z,17.03
2022-12-03T04:53:49.337Z,17.55
2022-12-03T04:56:51.691Z,17.80
2022-12-03T04:59:53.894Z,16.35
2022-12-03T05:02:56.148Z,16.45
2022-12-03T05:05:58.492Z,16.83
2022-12-03T05:09:02.144Z,13.43
2022-12-03T05:12:04.769Z,14.20
2022-12-03T05:15:07.460Z,15.98
2022-12-03T05:18:09.734Z,12.73
2022-12-03T05:21:12.238Z,15.63
2022-12-03T05:24:14.559Z,9.95
2022-12-03T05:27:23.133Z,14.85
2022-12-03T05:30:26.474Z,18.77
2022-12-03T05:33:28.753Z,17.27
2022-12-03T05:36:30.995Z,19.17
2022-12-03T05:39:33.265Z,17.30
2022-12-03T05:42:53.934Z,17.60
2022-12-03T05:45:56.299Z,17.55
2022-12-03T05:48:58.635Z,18.55
2022-12-03T05:52:00.954Z,17.33
2022-12-03T05:55:04.620Z,17.20
2022-12-03T05:58:07.206Z,17.85
2022-12-03T06:01:09.486Z,17.02
2022-12-03T06:04:12.074Z,17.75
2022-12-03T06:07:14.539Z,18.07
2022-12-03T06:10:20.851Z,18.20
2022-12-03T06:13:23.139Z,18.60
2022-12-03T06:16:25.624Z,18.10
2022-12-03T06:19:27.955Z,18.27
2022-12-03T06:22:30.170Z,18.13
2022-12-03T06:25:32.569Z,19.38
2022-12-03T06:28:34.810Z,19.67
2022-12-03T06:31:37.137Z,17.60
2022-12-03T06:34:39.482Z,19.30
2022-12-03T06:37:41.766Z,18.07
2022-12-03T06:40:44.034Z,17.40
2022-12-03T06:43:46.847Z,18.80
2022-12-03T06:46:49.268Z,17.98
2022-12-03T06:49:51.591Z,17.45
2022-12-03T06:52:53.963Z,18.10
2022-12-03T06:55:56.277Z,19.50
2022-12-03T06:58:58.676Z,20.08
2022-12-03T07:02:01.277Z,18.33
2022-12-03T07:05:04.335Z,19.55
2022-12-03T07:08:07.142Z,19.17
2022-12-03T07:11:28.198Z,18.73
2022-12-03T07:14:30.498Z,20.20
2022-12-03T07:17:32.738Z,20.40
2022-12-03T07:20:35.014Z,18.73
2022-12-03T07:23:37.731Z,18.93
2022-12-03T07:26:40.110Z,18.38
2022-12-03T07:29:42.485Z,20.25
2022-12-03T07:32:44.769Z,20.67
2022-12-03T07:35:47.021Z,19.10
2022-12-03T07:38:49.360Z,19.80
2022-12-03T07:41:51.637Z,19.58
2022-12-03T07:44:54.958Z,20.73
2022-12-03T07:47:58.014Z,19.23
2022-12-03T07:51:00.376Z,20.63
2022-12-03T07:54:02.682Z,19.20
2022-12-03T07:57:05.014Z,19.33
2022-12-03T08:00:08.879Z,20.65
2022-12-03T08:03:11.211Z,19.55
2022-12-03T08:06:13.696Z,20.38
2022-12-03T08:09:16.589Z,19.97
2022-12-03T08:12:40.243Z,19.55
2022-12-03T08:15:43.221Z,21.33
2022-12-03T08:18:47.102Z,21.05
2022-12-03T08:21:49.558Z,20.75
2022-12-03T08:24:52.071Z,19.43
2022-12-03T08:28:00.448Z,19.08
2022-12-03T08:31:20.089Z,20.23
2022-12-03T08:34:31.921Z,19.33
2022-12-03T08:37:36.164Z,20.67
2022-12-03T08:40:43.898Z,20.17
2022-12-03T08:43:46.509Z,19.73
2022-12-03T08:47:21.364Z,20.67
2022-12-03T08:50:31.550Z,20.27
2022-12-03T08:53:36.945Z,20.60
2022-12-03T08:56:39.289Z,17.70
2022-12-03T08:59:45.505Z,17.73
2022-12-03T09:02:51.346Z,18.60
2022-12-03T09:05:53.685Z,16.05
2022-12-03T09:08:56.235Z,16.10
2022-12-03T09:11:58.828Z,15.77
2022-12-03T09:15:01.127Z,17.85
2022-12-03T09:18:03.651Z,17.65
2022-12-03T09:21:06.543Z,17.33
2022-12-03T09:24:12.028Z,17.40
2022-12-03T09:27:14.381Z,16.43
2022-12-03T09:30:17.238Z,17.15
2022-12-03T09:33:21.539Z,16.95
2022-12-03T09:36:23.873Z,17.20
2022-12-03T09:39:26.471Z,16.75
2022-12-03T09:42:28.767Z,16.00
2022-12-03T09:45:31.150Z,16.38
2022-12-03T09:48:33.557Z,16.73
2022-12-03T09:51:36.772Z,17.02
2022-12-03T09:54:42.808Z,16.70
2022-12-03T09:57:48.278Z,16.07
2022-12-03T10:00:52.599Z,16.30
2022-12-03T10:03:54.984Z,16.98
2022-12-03T10:06:59.074Z,17.67
2022-12-03T10:10:01.598Z,18.30
2022-12-03T10:13:07.332Z,16.77
2022-12-03T10:16:13.437Z,17.90
2022-12-03T10:19:26.117Z,21.85
2022-12-03T10:22:28.624Z,17.52
2022-12-03T10:25:30.993Z,18.08
2022-12-03T10:28:43.713Z,17.50
2022-12-03T10:31:54.342Z,17.17
2022-12-03T10:35:16.238Z,17.40
2022-12-03T10:38:20.018Z,17.58
2022-12-03T10:41:28.155Z,17.83
2022-12-03T10:44:30.718Z,18.13
2022-12-03T10:47:33.182Z,18.25
2022-12-03T10:50:36.309Z,17.90
2022-12-03T10:53:40.667Z,18.63
2022-12-03T10:56:43.900Z,18.38
2022-12-03T10:59:46.865Z,16.93
2022-12-03T11:02:54.819Z,17.80
2022-12-03T11:06:01.001Z,17.48
2022-12-03T11:09:08.826Z,17.13
2022-12-03T11:12:24.717Z,17.38
2022-12-03T11:15:43.946Z,16.90
2022-12-03T11:18:58.375Z,17.02
2022-12-03T11:22:04.940Z,16.95
2022-12-03T11:25:25.478Z,18.52
2022-12-03T11:28:27.723Z,17.30
2022-12-03T11:31:37.517Z,16.60
2022-12-03T11:34:40.677Z,12.63
2022-12-03T11:37:43.067Z,12.65
2022-12-03T11:41:08.184Z,13.43
2022-12-03T11:44:31.504Z,9.60
2022-12-03T11:47:39.079Z,10.77
2022-12-03T11:50:44.902Z,9.05
2022-12-03T11:53:47.870Z,10.50
2022-12-03T11:56:52.289Z,7.85
2022-12-03T12:00:07.321Z,11.10
2022-12-03T12:03:23.079Z,8.93
2022-12-03T12:06:25.531Z,9.85
2022-12-03T12:09:56.005Z,8.43
2022-12-03T12:12:58.422Z,9.70
2022-12-03T12:16:02.988Z,10.85
2022-12-03T12:19:27.997Z,12.83
2022-12-03T12:22:31.379Z,11.70
2022-12-03T12:25:40.355Z,8.02
2022-12-03T12:28:42.706Z,7.43
2022-12-03T12:31:47.319Z,7.03
2022-12-03T12:34:57.957Z,9.93
2022-12-03T12:38:14.747Z,9.82
2022-12-03T12:41:17.214Z,7.18
2022-12-03T12:44:23.245Z,7.50
2022-12-03T12:47:26.050Z,8.70
2022-12-03T12:50:28.423Z,9.07
2022-12-03T12:53:34.140Z,8.32
2022-12-03T12:56:36.781Z,7.65
2022-12-03T12:59:39.309Z,8.43
2022-12-03T13:03:00.026Z,8.60
2022-12-03T13:06:03.278Z,7.60
2022-12-03T13:09:12.949Z,7.22
2022-12-03T13:12:21.889Z,7.93
2022-12-03T13:15:42.497Z,8.95
2022-12-03T13:18:53.324Z,7.50
2022-12-03T13:21:58.645Z,9.93
2022-12-03T13:25:44.038Z,7.88
2022-12-03T13:28:45.563Z,9.77
2022-12-03T13:31:58.037Z,10.18
2022-12-03T13:35:06.515Z,9.23
2022-12-03T13:38:16.946Z,10.17
2022-12-03T13:41:40.033Z,10.18
2022-12-03T13:44:49.018Z,7.25
2022-12-03T13:48:24.923Z,10.65
2022-12-03T13:51:32.654Z,8.13
2022-12-03T13:54:37.951Z,10.90
2022-12-03T13:57:40.357Z,7.65
2022-12-03T14:00:42.778Z,9.88
2022-12-03T14:03:45.207Z,9.00
2022-12-03T14:06:47.585Z,9.15
2022-12-03T14:09:49.852Z,10.27
2022-12-03T14:12:52.156Z,11.60
2022-12-03T14:15:54.440Z,11.30
2022-12-03T14:18:56.729Z,11.73
2022-12-03T14:22:00.242Z,10.90
2022-12-03T14:25:02.564Z,10.47
2022-12-03T14:28:08.732Z,9.73
2022-12-03T14:31:12.593Z,11.57
2022-12-03T14:34:14.912Z,11.50
2022-12-03T14:37:17.626Z,11.32
2022-12-03T14:40:22.189Z,11.13
2022-12-03T14:43:25.250Z,11.40
2022-12-03T14:46:27.607Z,11.05
2022-12-03T14:49:30.106Z,10.13
2022-12-03T14:52:32.794Z,12.07
2022-12-03T14:55:35.044Z,17.23
2022-12-03T14:58:37.385Z,15.63
2022-12-03T15:01:39.784Z,15.18
2022-12-03T15:04:42.239Z,13.55
2022-12-03T15:07:44.617Z,14.68
2022-12-03T15:10:46.988Z,14.37
2022-12-03T15:13:49.481Z,14.10
2022-12-03T15:16:51.916Z,15.38
2022-12-03T15:19:54.390Z,14.02
2022-12-03T15:22:56.863Z,14.73
2022-12-03T15:25:59.398Z,11.73
2022-12-03T15:29:01.671Z,13.38
2022-12-03T15:32:03.966Z,13.60
2022-12-03T15:35:06.963Z,13.73
2022-12-03T15:38:10.138Z,13.95
2022-12-03T15:41:21.700Z,14.17
2022-12-03T15:44:23.951Z,13.52
2022-12-03T15:47:26.406Z,15.77
2022-12-03T15:50:28.736Z,15.18
2022-12-03T15:53:31.036Z,15.68
2022-12-03T15:56:37.600Z,15.67
2022-12-03T15:59:40.010Z,17.08
2022-12-03T16:02:45.103Z,126.45
2022-12-03T16:05:51.449Z,35.15
2022-12-03T16:08:53.688Z,21.50
2022-12-03T16:11:56.135Z,20.80
2022-12-03T16:14:58.419Z,23.42
2022-12-03T16:18:01.154Z,21.30
2022-12-03T16:21:03.549Z,19.02
2022-12-03T16:24:06.115Z,25.48
2022-12-03T16:27:08.897Z,20.93
2022-12-03T16:30:11.757Z,18.17
2022-12-03T16:33:14.057Z,17.83
2022-12-03T16:36:16.654Z,18.80
2022-12-03T16:39:19.352Z,19.65
2022-12-03T16:42:21.701Z,17.50
2022-12-03T16:45:29.653Z,18.38
2022-12-03T16:48:31.976Z,19.60
2022-12-03T16:51:34.198Z,22.48
2022-12-03T16:54:36.598Z,20.17
2022-12-03T16:57:38.874Z,24.33
2022-12-03T17:00:41.152Z,24.13
2022-12-03T17:03:43.483Z,21.35
2022-12-03T17:06:46.794Z,20.50
2022-12-03T17:09:49.259Z,19.10
2022-12-03T17:16:14.307Z,20.05
2022-12-03T17:19:17.391Z,20.23
2022-12-03T17:22:19.711Z,19.33
2022-12-03T17:25:22.159Z,19.92
2022-12-03T17:28:24.393Z,19.50
2022-12-03T17:31:26.686Z,20.75
2022-12-03T17:34:29.027Z,20.08
2022-12-03T17:37:31.282Z,22.00
2022-12-03T17:40:33.549Z,21.35
2022-12-03T17:43:35.897Z,21.93
2022-12-03T17:46:38.323Z,24.63
2022-12-03T17:49:40.670Z,23.90
2022-12-03T17:52:43.016Z,23.20
2022-12-03T17:55:47.013Z,22.45
2022-12-03T17:58:49.326Z,22.77
2022-12-03T18:01:51.691Z,23.30
2022-12-03T18:04:54.060Z,24.25
2022-12-03T18:07:56.530Z,22.23
2022-12-03T18:10:58.811Z,24.45
2022-12-03T18:14:01.501Z,22.80
2022-12-03T18:17:03.756Z,24.85
2022-12-03T18:20:07.347Z,24.35
2022-12-03T18:23:09.814Z,25.10
2022-12-03T18:26:12.203Z,28.02
2022-12-03T18:29:14.509Z,26.43
2022-12-03T18:32:28.443Z,27.55
2022-12-03T18:35:31.774Z,26.75
2022-12-03T18:38:34.214Z,30.25
2022-12-03T18:41:36.865Z,29.45
2022-12-03T18:44:39.098Z,27.63
2022-12-03T18:47:41.477Z,28.98
2022-12-03T18:50:45.282Z,35.10
2022-12-03T18:53:48.356Z,32.00
2022-12-03T18:56:50.904Z,31.70
2022-12-03T18:59:53.538Z,32.07
2022-12-03T19:03:04.309Z,32.05
2022-12-03T19:06:17.090Z,32.78
2022-12-03T19:09:21.048Z,30.50
2022-12-03T19:12:23.527Z,30.77
2022-12-03T19:15:25.904Z,30.80
2022-12-03T19:18:28.207Z,28.05
2022-12-03T19:21:33.694Z,30.50
2022-12-03T19:24:36.315Z,31.65
2022-12-03T19:27:38.601Z,32.45
2022-12-03T19:30:40.855Z,43.97
2022-12-03T19:33:44.262Z,38.20
2022-12-03T19:36:47.536Z,36.65
2022-12-03T19:39:54.227Z,39.90
2022-12-03T19:42:56.897Z,47.97
2022-12-03T19:46:07.062Z,51.20
2022-12-03T19:49:10.896Z,34.10
2022-12-03T19:52:13.130Z,37.13
2022-12-03T19:55:19.492Z,31.20
2022-12-03T19:58:22.150Z,37.67
2022-12-03T20:01:30.138Z,28.70
2022-12-03T20:04:32.542Z,33.25
2022-12-03T20:07:34.867Z,32.58
2022-12-03T20:10:40.754Z,29.77
2022-12-03T20:13:44.009Z,29.90
2022-12-03T20:16:47.635Z,26.83
2022-12-03T20:19:49.938Z,26.73
2022-12-03T20:22:52.305Z,32.78
2022-12-03T20:25:55.077Z,33.65
2022-12-03T20:28:58.332Z,30.48
2022-12-03T20:32:01.155Z,33.23
2022-12-03T20:35:04.078Z,30.45
2022-12-03T20:38:06.436Z,32.75
2022-12-03T20:41:12.933Z,32.80
2022-12-03T20:44:15.355Z,31.55
2022-12-03T20:47:17.715Z,30.93
2022-12-03T20:50:19.950Z,32.10
2022-12-03T20:53:25.079Z,31.38
2022-12-03T20:56:34.270Z,29.88
2022-12-03T20:59:36.583Z,30.63
2022-12-03T21:02:39.010Z,29.27
2022-12-03T21:05:43.962Z,28.13
2022-12-03T21:08:46.567Z,31.80
2022-12-03T21:11:48.884Z,31.83
2022-12-03T21:14:51.144Z,33.78
2022-12-03T21:17:53.519Z,29.93
2022-12-03T21:20:55.927Z,29.98
2022-12-03T21:23:58.691Z,31.00
2022-12-03T21:27:01.074Z,28.30
2022-12-03T21:30:03.776Z,29.98
2022-12-03T21:33:07.050Z,28.50
2022-12-03T21:36:10.535Z,29.40
2022-12-03T21:39:12.867Z,29.92
2022-12-03T21:42:34.882Z,27.92
2022-12-03T21:45:40.638Z,27.90
2022-12-03T21:48:46.164Z,27.13
2022-12-03T21:51:48.785Z,26.77
2022-12-03T21:54:54.296Z,28.77
2022-12-03T21:57:56.655Z,27.40
2022-12-03T22:00:59.081Z,27.67
2022-12-03T22:04:01.421Z,27.00
2022-12-03T22:07:04.701Z,27.52
2022-12-03T22:10:09.638Z,27.98
2022-12-03T22:13:12.267Z,27.23
2022-12-03T22:16:20.463Z,28.08
2022-12-03T22:19:24.046Z,29.60
2022-12-03T22:22:26.608Z,26.60
2022-12-03T22:25:30.509Z,26.85
2022-12-03T22:28:34.368Z,26.50
2022-12-03T22:31:36.739Z,26.50
2022-12-03T22:34:43.744Z,24.90
2022-12-03T22:37:48.428Z,24.27
2022-12-03T22:40:50.929Z,27.02
2022-12-03T22:43:53.429Z,25.50
2022-12-03T22:46:55.846Z,27.08
2022-12-03T22:49:58.168Z,24.77
2022-12-03T22:53:00.486Z,24.45
2022-12-03T22:56:03.060Z,26.17
2022-12-03T22:59:06.070Z,24.88
2022-12-03T23:02:08.330Z,25.23
2022-12-03T23:05:10.639Z,26.57
2022-12-03T23:08:16.079Z,26.67
2022-12-03T23:11:19.598Z,26.85
2022-12-03T23:14:21.927Z,24.95
2022-12-03T23:17:24.218Z,24.90
2022-12-03T23:20:26.831Z,24.70
2022-12-03T23:23:29.148Z,24.95
2022-12-03T23:26:35.259Z,25.50
2022-12-03T23:29:37.504Z,23.63
2022-12-03T23:32:39.935Z,24.25
2022-12-03T23:35:42.308Z,23.73
2022-12-03T23:38:44.888Z,24.33
2022-12-03T23:41:50.857Z,26.23
2022-12-03T23:44:53.112Z,26.27
2022-12-03T23:47:58.316Z,25.58
2022-12-03T23:51:06.170Z,24.73
2022-12-03T23:54:09.753Z,24.27
2022-12-03T23:57:12.773Z,24.25
